メインページ
METAR-TAF:

METAR-TAF

空港 :

サンフランシスコ国際空港

サンフランシスコ, カリフォルニア州, アメリカ合衆国

緯度: 37-37-11N, 経度: 122-21-53W, 海抜: 3m

現時点の気象観測

当レポートは22分前の10:56(UTC)に作成
西の風 4kt
気温 8°C
湿度 71%
気圧 1028 hPa
視程: 8.0km
高度20000ftの雲はほとんどない
煙霧

METAR: KSFO 141056Z 28004KT 5SM HZ FEW200 08/03 A3035 RMK AO2 SLP277 T00830033

時間: 03:18 (11:18 UTC)

予報

当レポートは2時間16分前の09:02(UTC)に作成
予報は14日の 09時(UTC)から 15日の 12時(UTC)まで有効
変向風 3kt
視程: 6.4km
高度10000ftの雲はほとんどない
高度25000ftの雲はほとんどない
煙, 煙霧
14日の 2300時(UTC)から
西/北西の風 8kt
視程: 8.0km
高度25000ftの雲はほとんどない
煙, 煙霧
15日の 0400時(UTC)から
変向風 3kt
視程: 9.7km
高度25000ftの千切れ雲あり
煙, 煙霧

TAF: KSFO 140902Z 1409/1512 VRB03KT 4SM FU HZ FEW100 FEW250 FM142300 29008KT 5SM FU HZ FEW250 FM150400 VRB03KT 6SM FU HZ BKN250

4,000以上の空港の気象観測と天気予報(METAR報とTAF報)

利用可能な観測所は地図上に黄色い丸と赤い丸で示す。

丸の上にカーソルを重ねると観測所名を参照できる。

次にクリックすると気象観測と天気予報を参照できる。

マップの切り替え:黒色「×」印の緑ボタンをクリックして拡大、「-」印の緑ボタンをクリックして縮小、緑色の三角印をクリックして隣りの地図に切り替え


METAR-TAF: